Time;durP1;ratioP1;P1;durP2;ratioP2;P2;SDS_P1;SDS_P2;PMS_P1;PMS_P2;Temp;Humidity;BMP_temperature;BMP_pressure;BME280_temperature;BME280_humidity;BME280_pressure;Samples;Min_cycle;Max_cycle;Signal;HPM_P1;HPM_P2
2022/12/06 00:00:51;;;;;;;12.27;5.77;;;;;;;;;;5011054;28;20920;-67
2022/12/06 00:03:17;;;;;;;4.80;4.40;;;;;;;;;;5011843;28;20439;-67
2022/12/06 00:05:43;;;;;;;3.40;3.30;;;;;;;;;;5011159;28;20441;-67
2022/12/06 00:08:09;;;;;;;4.30;4.00;;;;;;;;;;5011026;28;20447;-67
2022/12/06 00:10:36;;;;;;;3.50;3.40;;;;;;;;;;5011486;28;20478;-67
2022/12/06 00:13:03;;;;;;;5.17;3.73;;;;;;;;;;5012167;28;20982;-67
2022/12/06 00:15:29;;;;;;;3.37;3.17;;;;;;;;;;5011623;28;20436;-66
2022/12/06 00:17:54;;;;;;;3.17;2.97;;;;;;;;;;5011335;28;20440;-67
2022/12/06 00:20:20;;;;;;;3.80;3.50;;;;;;;;;;5010775;28;20498;-67
2022/12/06 00:22:47;;;;;;;2.67;2.57;;;;;;;;;;5011950;28;20448;-66
2022/12/06 00:25:13;;;;;;;3.80;3.70;;;;;;;;;;5011455;28;20463;-67
2022/12/06 00:27:39;;;;;;;5.07;3.70;;;;;;;;;;5011885;28;20463;-66
2022/12/06 00:30:05;;;;;;;3.40;3.20;;;;;;;;;;5010994;28;21019;-67
2022/12/06 00:32:31;;;;;;;3.00;2.80;;;;;;;;;;5010294;28;20494;-67
2022/12/06 00:34:57;;;;;;;3.40;3.30;;;;;;;;;;5010981;28;20811;-67
2022/12/06 00:37:23;;;;;;;3.70;3.50;;;;;;;;;;5011025;28;20483;-67
2022/12/06 00:39:49;;;;;;;3.37;3.27;;;;;;;;;;5010549;28;20432;-67
2022/12/06 00:42:15;;;;;;;3.53;3.37;;;;;;;;;;5011317;28;20807;-67
2022/12/06 00:44:41;;;;;;;3.97;3.77;;;;;;;;;;5010997;28;20570;-67
2022/12/06 00:47:07;;;;;;;5.37;4.87;;;;;;;;;;5011341;28;20428;-67
2022/12/06 00:49:33;;;;;;;4.67;4.37;;;;;;;;;;5009322;28;20464;-67
2022/12/06 00:51:59;;;;;;;3.97;3.53;;;;;;;;;;5010579;28;20428;-67
2022/12/06 00:54:25;;;;;;;4.07;3.77;;;;;;;;;;5011046;28;20795;-67
2022/12/06 00:56:51;;;;;;;4.80;4.60;;;;;;;;;;5011036;28;20570;-67
2022/12/06 00:59:17;;;;;;;3.70;3.43;;;;;;;;;;5009670;28;20778;-67
2022/12/06 01:01:43;;;;;;;6.30;5.53;;;;;;;;;;5010702;28;20450;-67
2022/12/06 01:04:09;;;;;;;4.03;3.83;;;;;;;;;;5009750;28;20444;-67
2022/12/06 01:06:36;;;;;;;3.90;3.73;;;;;;;;;;5010781;28;20431;-67
2022/12/06 01:09:04;;;;;;;3.87;3.67;;;;;;;;;;5010672;28;20443;-67
2022/12/06 01:11:31;;;;;;;4.50;4.20;;;;;;;;;;5010643;28;20445;-66
2022/12/06 01:13:57;;;;;;;4.60;4.20;;;;;;;;;;5009965;28;20434;-66
2022/12/06 01:16:28;;;;;;;3.70;3.50;;;;;;;;;;5010250;28;20484;-67
2022/12/06 01:18:55;;;;;;;3.93;3.73;;;;;;;;;;5010470;28;20436;-67
2022/12/06 01:21:22;;;;;;;3.63;3.40;;;;;;;;;;5009821;28;20511;-67
2022/12/06 01:23:49;;;;;;;5.87;3.70;;;;;;;;;;5009581;28;20448;-67
2022/12/06 01:26:16;;;;;;;3.80;3.67;;;;;;;;;;5010495;28;20428;-67
2022/12/06 01:28:43;;;;;;;16.10;8.53;;;;;;;;;;5009859;28;20448;-67
2022/12/06 01:31:09;;;;;;;4.40;4.10;;;;;;;;;;5009623;28;20436;-67
2022/12/06 01:33:34;;;;;;;5.10;4.67;;;;;;;;;;5009429;28;20524;-67
2022/12/06 01:36:00;;;;;;;5.00;4.70;;;;;;;;;;5010507;28;20959;-66
2022/12/06 01:38:26;;;;;;;4.77;4.47;;;;;;;;;;5010285;28;20437;-67
2022/12/06 01:40:52;;;;;;;3.60;3.50;;;;;;;;;;5010032;28;20853;-67
2022/12/06 01:43:30;;;;;;;6.63;6.10;;;;;;;;;;5008531;28;20488;-67
2022/12/06 01:45:57;;;;;;;6.20;5.37;;;;;;;;;;5010424;28;20806;-67
2022/12/06 01:48:24;;;;;;;4.20;4.00;;;;;;;;;;5009560;28;20523;-67
2022/12/06 01:50:51;;;;;;;5.23;4.77;;;;;;;;;;5008845;28;20899;-67
2022/12/06 01:53:18;;;;;;;4.33;4.10;;;;;;;;;;5008695;28;20428;-67
2022/12/06 01:55:45;;;;;;;4.47;4.20;;;;;;;;;;5009295;28;20463;-67
2022/12/06 01:58:24;;;;;;;3.47;3.27;;;;;;;;;;5010163;28;20519;-67
2022/12/06 02:00:50;;;;;;;3.47;3.27;;;;;;;;;;5009340;28;20416;-67
2022/12/06 02:03:19;;;;;;;4.17;3.97;;;;;;;;;;5010227;28;20792;-66
2022/12/06 02:05:45;;;;;;;3.13;3.03;;;;;;;;;;5009608;28;20429;-67
2022/12/06 02:08:12;;;;;;;4.23;4.03;;;;;;;;;;5009516;28;20440;-66
2022/12/06 02:10:38;;;;;;;4.23;4.03;;;;;;;;;;5008970;28;20443;-67
2022/12/06 02:13:05;;;;;;;3.80;3.60;;;;;;;;;;5010002;28;20432;-67
2022/12/06 02:15:38;;;;;;;3.00;2.90;;;;;;;;;;5009995;28;20470;-66
2022/12/06 02:18:17;;;;;;;3.87;3.67;;;;;;;;;;5009927;28;20431;-67
2022/12/06 02:21:09;;;;;;;3.97;3.70;;;;;;;;;;5009088;28;20412;-67
2022/12/06 02:23:47;;;;;;;3.33;3.03;;;;;;;;;;5005704;28;20440;-67
2022/12/06 02:26:17;;;;;;;2.70;2.50;;;;;;;;;;5009911;28;20466;-67
2022/12/06 02:29:10;;;;;;;3.10;3.00;;;;;;;;;;5009351;28;20513;-66
2022/12/06 02:31:42;;;;;;;3.83;3.63;;;;;;;;;;5005948;28;20416;-67
2022/12/06 02:34:13;;;;;;;5.07;4.20;;;;;;;;;;5006867;28;20527;-67
2022/12/06 02:36:57;;;;;;;5.47;4.73;;;;;;;;;;5009563;28;20505;-67
2022/12/06 02:39:23;;;;;;;3.83;3.63;;;;;;;;;;5008301;28;20420;-67
2022/12/06 02:42:18;;;;;;;2.97;2.90;;;;;;;;;;5008856;28;20527;-67
2022/12/06 02:44:54;;;;;;;3.43;3.33;;;;;;;;;;4976007;28;20472;-67
2022/12/06 02:47:23;;;;;;;4.43;4.17;;;;;;;;;;4991971;28;20987;-67
2022/12/06 02:49:49;;;;;;;3.57;3.47;;;;;;;;;;5006460;28;20822;-67
2022/12/06 02:52:17;;;;;;;4.60;4.40;;;;;;;;;;5009567;28;20440;-67
2022/12/06 02:54:44;;;;;;;4.40;4.10;;;;;;;;;;5009653;28;20479;-67
2022/12/06 02:57:10;;;;;;;4.57;4.23;;;;;;;;;;5009108;28;20866;-67
2022/12/06 02:59:36;;;;;;;4.13;3.93;;;;;;;;;;5008910;28;20424;-67
2022/12/06 03:02:04;;;;;;;3.70;3.50;;;;;;;;;;5009734;28;20908;-67
2022/12/06 03:04:46;;;;;;;3.60;3.40;;;;;;;;;;5008775;28;20507;-67
2022/12/06 03:07:18;;;;;;;3.97;3.77;;;;;;;;;;5010668;28;20955;-67
2022/12/06 03:09:48;;;;;;;3.23;3.13;;;;;;;;;;5013289;28;20428;-67
2022/12/06 03:12:26;;;;;;;4.00;3.70;;;;;;;;;;5013411;28;20432;-67
2022/12/06 03:15:05;;;;;;;3.80;3.60;;;;;;;;;;5013011;28;20416;-67
2022/12/06 03:17:36;;;;;;;3.63;3.50;;;;;;;;;;5011945;28;20495;-67
2022/12/06 03:20:08;;;;;;;3.70;3.50;;;;;;;;;;5012275;28;20424;-67
2022/12/06 03:22:36;;;;;;;4.83;4.40;;;;;;;;;;5013062;28;21003;-67
2022/12/06 03:25:04;;;;;;;4.17;3.97;;;;;;;;;;5013276;28;20428;-67
2022/12/06 03:27:30;;;;;;;5.20;4.90;;;;;;;;;;5012535;28;20490;-67
2022/12/06 03:29:58;;;;;;;13.70;4.23;;;;;;;;;;5012306;28;20454;-67
2022/12/06 03:32:25;;;;;;;6.33;4.43;;;;;;;;;;5011578;28;20427;-66
2022/12/06 03:34:53;;;;;;;5.07;4.63;;;;;;;;;;5012547;28;20507;-67
2022/12/06 03:37:21;;;;;;;4.83;4.63;;;;;;;;;;5011899;28;20471;-67
2022/12/06 03:39:47;;;;;;;7.90;5.07;;;;;;;;;;5012179;28;20428;-67
2022/12/06 03:42:13;;;;;;;5.60;4.93;;;;;;;;;;5012525;28;20836;-67
2022/12/06 03:44:39;;;;;;;7.20;4.80;;;;;;;;;;5012564;28;20479;-67
2022/12/06 03:47:12;;;;;;;4.67;4.37;;;;;;;;;;5012096;28;20444;-67
2022/12/06 03:49:41;;;;;;;9.03;5.53;;;;;;;;;;5011497;28;21201;-67
2022/12/06 03:52:08;;;;;;;39.73;5.63;;;;;;;;;;5012598;28;20494;-67
2022/12/06 03:54:34;;;;;;;4.40;4.00;;;;;;;;;;5011329;28;20430;-67
2022/12/06 03:57:00;;;;;;;7.43;4.97;;;;;;;;;;5012047;28;20487;-67
2022/12/06 03:59:26;;;;;;;4.83;4.53;;;;;;;;;;5011513;28;20428;-67
2022/12/06 04:01:52;;;;;;;6.10;5.50;;;;;;;;;;5011838;28;20451;-67
2022/12/06 04:04:18;;;;;;;4.40;3.60;;;;;;;;;;5011805;28;20428;-67
2022/12/06 04:06:44;;;;;;;4.23;4.03;;;;;;;;;;5012413;28;20513;-67
2022/12/06 04:11:55;;;;;;;3.53;3.33;;;;;;;;;;5011660;28;20487;-67
2022/12/06 04:14:21;;;;;;;2.90;2.80;;;;;;;;;;4994449;28;20424;-67
2022/12/06 04:19:31;;;;;;;4.97;4.57;;;;;;;;;;5009797;28;20435;-67
2022/12/06 04:24:42;;;;;;;4.30;4.20;;;;;;;;;;5012207;28;20435;-67
2022/12/06 04:40:51;;;;;;;4.03;3.87;;;;;;;;;;5010994;28;20770;-67
2022/12/06 04:46:01;;;;;;;4.80;4.50;;;;;;;;;;5010606;28;20506;-67
2022/12/06 04:48:27;;;;;;;6.43;5.37;;;;;;;;;;5011486;28;20920;-67
2022/12/06 04:50:53;;;;;;;11.13;6.73;;;;;;;;;;5009905;28;21762;-67
2022/12/06 04:53:19;;;;;;;6.97;5.93;;;;;;;;;;5010813;28;20424;-67
2022/12/06 04:55:46;;;;;;;5.70;5.20;;;;;;;;;;5010623;28;20947;-67
2022/12/06 04:58:12;;;;;;;6.37;5.97;;;;;;;;;;5011192;28;20467;-67
2022/12/06 05:00:42;;;;;;;7.33;6.60;;;;;;;;;;5010709;28;20432;-66
2022/12/06 05:03:08;;;;;;;6.33;5.77;;;;;;;;;;5011067;28;20432;-66
2022/12/06 05:05:34;;;;;;;6.33;5.83;;;;;;;;;;5010498;28;20470;-67
2022/12/06 05:08:00;;;;;;;4.73;4.50;;;;;;;;;;5009834;28;20436;-67
2022/12/06 05:10:26;;;;;;;5.77;5.20;;;;;;;;;;5010417;28;20444;-67
2022/12/06 05:12:52;;;;;;;8.93;4.23;;;;;;;;;;5010863;28;20423;-67
2022/12/06 05:15:18;;;;;;;4.63;4.43;;;;;;;;;;5010829;28;20759;-66
2022/12/06 05:17:44;;;;;;;5.80;4.47;;;;;;;;;;5010471;28;20488;-67
2022/12/06 05:20:10;;;;;;;4.07;3.90;;;;;;;;;;5009991;28;20433;-67
2022/12/06 05:22:36;;;;;;;4.17;3.97;;;;;;;;;;5011041;28;20439;-67
2022/12/06 05:25:02;;;;;;;4.70;4.30;;;;;;;;;;5010814;28;20917;-67
2022/12/06 05:27:28;;;;;;;4.80;4.40;;;;;;;;;;5010624;28;20428;-66
2022/12/06 05:29:54;;;;;;;5.57;5.00;;;;;;;;;;5009363;28;20447;-67
2022/12/06 05:32:20;;;;;;;7.30;5.40;;;;;;;;;;5009459;28;20527;-67
2022/12/06 05:34:46;;;;;;;6.17;5.63;;;;;;;;;;5009392;28;20854;-67
2022/12/06 05:37:12;;;;;;;7.17;5.93;;;;;;;;;;5010183;28;20480;-67
2022/12/06 05:39:38;;;;;;;6.17;5.63;;;;;;;;;;5009425;28;20485;-67
2022/12/06 05:42:04;;;;;;;5.83;5.33;;;;;;;;;;5009889;28;20428;-67
2022/12/06 05:44:30;;;;;;;6.40;5.87;;;;;;;;;;5010253;28;20480;-67
2022/12/06 05:46:56;;;;;;;6.47;6.00;;;;;;;;;;5009842;28;21071;-67
2022/12/06 05:49:22;;;;;;;7.33;6.73;;;;;;;;;;4992262;28;20462;-67
2022/12/06 05:51:48;;;;;;;19.20;5.73;;;;;;;;;;5010365;28;20432;-67
2022/12/06 05:54:14;;;;;;;7.60;6.80;;;;;;;;;;5010439;28;20854;-67
2022/12/06 05:56:40;;;;;;;8.73;7.83;;;;;;;;;;5007299;28;20533;-67
2022/12/06 05:59:06;;;;;;;17.83;10.90;;;;;;;;;;5007581;28;20514;-67
2022/12/06 06:01:32;;;;;;;22.03;14.47;;;;;;;;;;5007720;28;20455;-66
2022/12/06 06:03:58;;;;;;;17.43;11.20;;;;;;;;;;5007172;28;20467;-66
2022/12/06 06:06:23;;;;;;;7.10;6.47;;;;;;;;;;5009644;28;20443;-66
2022/12/06 06:08:51;;;;;;;7.30;6.53;;;;;;;;;;5009211;28;20459;-67
2022/12/06 06:11:17;;;;;;;7.63;6.90;;;;;;;;;;5008516;28;20424;-67
2022/12/06 06:13:43;;;;;;;8.50;6.90;;;;;;;;;;5007542;28;20474;-66
2022/12/06 06:16:09;;;;;;;17.87;9.03;;;;;;;;;;5008294;28;20488;-67
2022/12/06 06:18:35;;;;;;;20.40;5.37;;;;;;;;;;5006463;28;20416;-67
2022/12/06 06:21:02;;;;;;;6.13;5.23;;;;;;;;;;5007978;28;20487;-67
2022/12/06 06:23:29;;;;;;;9.63;6.80;;;;;;;;;;5008788;28;20420;-67
2022/12/06 06:25:55;;;;;;;8.63;6.73;;;;;;;;;;5009222;28;20804;-67
2022/12/06 06:28:21;;;;;;;5.90;5.37;;;;;;;;;;5008276;28;20459;-67
2022/12/06 06:30:47;;;;;;;18.43;7.07;;;;;;;;;;5007973;28;20436;-66
2022/12/06 06:33:13;;;;;;;8.23;6.40;;;;;;;;;;5008168;28;20424;-67
2022/12/06 06:35:40;;;;;;;7.20;6.50;;;;;;;;;;5007961;28;20443;-67
2022/12/06 06:38:06;;;;;;;10.33;5.00;;;;;;;;;;5006538;28;20463;-67
2022/12/06 06:40:32;;;;;;;9.80;4.77;;;;;;;;;;5008663;28;20444;-67
2022/12/06 06:43:16;;;;;;;8.13;4.87;;;;;;;;;;5012938;28;20468;-67
2022/12/06 06:45:42;;;;;;;8.20;6.83;;;;;;;;;;5011189;28;20936;-67
2022/12/06 06:48:08;;;;;;;8.07;6.37;;;;;;;;;;4994915;28;20436;-67
2022/12/06 06:50:34;;;;;;;4.70;4.40;;;;;;;;;;5011762;28;20451;-67
2022/12/06 06:53:01;;;;;;;10.33;4.73;;;;;;;;;;5012913;28;20440;-67
2022/12/06 06:55:29;;;;;;;4.67;4.37;;;;;;;;;;5011296;28;20523;-67
2022/12/06 06:57:55;;;;;;;6.63;5.67;;;;;;;;;;5012192;28;20582;-67
2022/12/06 07:00:21;;;;;;;6.30;5.03;;;;;;;;;;5009986;28;20774;-67
2022/12/06 07:02:47;;;;;;;5.10;4.80;;;;;;;;;;5012006;28;20966;-67
2022/12/06 07:05:13;;;;;;;7.70;5.60;;;;;;;;;;5011801;28;20435;-67
2022/12/06 07:07:39;;;;;;;6.40;5.00;;;;;;;;;;4995096;28;20444;-67
2022/12/06 07:10:05;;;;;;;5.63;4.53;;;;;;;;;;5010435;28;20956;-68
2022/12/06 07:12:31;;;;;;;8.70;5.70;;;;;;;;;;5011925;28;20975;-68
2022/12/06 07:14:57;;;;;;;5.93;5.37;;;;;;;;;;5012873;28;20427;-68
2022/12/06 07:17:23;;;;;;;5.10;4.57;;;;;;;;;;5012479;28;20533;-67
2022/12/06 07:19:49;;;;;;;5.53;5.23;;;;;;;;;;5010536;28;20944;-67
2022/12/06 07:22:15;;;;;;;5.67;5.20;;;;;;;;;;5012474;28;20432;-67
2022/12/06 07:24:41;;;;;;;5.00;4.70;;;;;;;;;;5012778;28;20423;-67
2022/12/06 07:27:07;;;;;;;5.30;4.90;;;;;;;;;;5012928;28;20424;-67
2022/12/06 07:29:33;;;;;;;5.67;5.07;;;;;;;;;;5012577;28;20416;-67
2022/12/06 07:31:59;;;;;;;6.27;5.77;;;;;;;;;;5012238;28;20440;-66
2022/12/06 07:34:25;;;;;;;6.70;5.70;;;;;;;;;;5011409;28;20459;-67
2022/12/06 07:36:51;;;;;;;6.97;5.83;;;;;;;;;;5012776;28;20475;-67
2022/12/06 07:39:17;;;;;;;6.10;5.50;;;;;;;;;;5011326;28;20840;-67
2022/12/06 07:47:13;;;;;;;6.57;5.73;;;;;;;;;;5012342;28;20471;-67
2022/12/06 07:49:39;;;;;;;5.63;5.23;;;;;;;;;;5007918;28;20463;-66
2022/12/06 07:52:05;;;;;;;5.90;5.27;;;;;;;;;;5011683;28;20455;-67
2022/12/06 07:54:31;;;;;;;6.03;5.13;;;;;;;;;;5011536;28;20490;-67
2022/12/06 07:56:57;;;;;;;9.83;6.00;;;;;;;;;;5011327;28;21750;-66
2022/12/06 07:59:23;;;;;;;14.50;5.90;;;;;;;;;;5011253;28;20925;-66
2022/12/06 08:01:51;;;;;;;7.10;5.97;;;;;;;;;;5010763;28;21016;-66
2022/12/06 08:04:17;;;;;;;5.43;5.00;;;;;;;;;;5011688;28;20509;-67
2022/12/06 08:06:43;;;;;;;6.07;4.93;;;;;;;;;;4992635;28;20486;-66
2022/12/06 08:09:09;;;;;;;11.30;6.00;;;;;;;;;;5008034;28;20498;-75
2022/12/06 08:11:35;;;;;;;6.23;5.63;;;;;;;;;;5010268;28;20519;-67
2022/12/06 08:14:02;;;;;;;6.27;5.77;;;;;;;;;;5011727;28;20847;-67
2022/12/06 08:16:28;;;;;;;6.57;5.20;;;;;;;;;;5010925;28;20472;-67
2022/12/06 08:18:54;;;;;;;8.23;5.53;;;;;;;;;;5009597;28;20428;-67
2022/12/06 08:21:20;;;;;;;4.87;4.57;;;;;;;;;;5010895;28;20420;-67
2022/12/06 08:23:46;;;;;;;11.07;5.57;;;;;;;;;;5011431;28;20432;-67
2022/12/06 08:26:14;;;;;;;6.27;5.67;;;;;;;;;;5010364;28;20581;-67
2022/12/06 08:28:41;;;;;;;6.23;5.63;;;;;;;;;;5011387;28;20515;-67
2022/12/06 08:31:12;;;;;;;7.50;5.87;;;;;;;;;;5010970;28;20427;-67
2022/12/06 08:33:38;;;;;;;6.43;5.30;;;;;;;;;;5011558;28;20431;-67
2022/12/06 08:36:11;;;;;;;10.00;5.67;;;;;;;;;;5011901;28;20478;-66
2022/12/06 08:38:38;;;;;;;5.70;5.20;;;;;;;;;;5011673;28;20436;-67
2022/12/06 08:41:05;;;;;;;7.30;6.70;;;;;;;;;;5010734;28;20531;-67
2022/12/06 08:43:31;;;;;;;5.63;5.23;;;;;;;;;;5011192;28;20485;-67
2022/12/06 08:45:56;;;;;;;6.00;5.33;;;;;;;;;;5011339;28;20428;-66
2022/12/06 08:48:22;;;;;;;6.17;5.53;;;;;;;;;;5011183;28;20428;-67
2022/12/06 08:50:48;;;;;;;10.73;5.03;;;;;;;;;;4993474;28;20423;-66
2022/12/06 08:53:14;;;;;;;8.17;6.10;;;;;;;;;;5011134;28;20791;-67
2022/12/06 08:55:40;;;;;;;6.17;5.67;;;;;;;;;;5010761;28;20510;-66
2022/12/06 08:58:07;;;;;;;6.97;6.27;;;;;;;;;;5010264;28;20926;-66
2022/12/06 09:00:33;;;;;;;7.67;6.27;;;;;;;;;;5010305;28;21020;-66
2022/12/06 09:02:59;;;;;;;6.17;5.57;;;;;;;;;;5010903;28;20444;-67
2022/12/06 09:05:25;;;;;;;7.07;5.77;;;;;;;;;;5010727;28;20977;-67
2022/12/06 09:07:51;;;;;;;6.47;5.90;;;;;;;;;;5011465;28;20424;-67
2022/12/06 09:10:17;;;;;;;13.13;7.03;;;;;;;;;;4993561;28;20523;-66
2022/12/06 09:12:43;;;;;;;8.77;7.33;;;;;;;;;;5010945;28;20523;-67
2022/12/06 09:15:09;;;;;;;7.30;6.27;;;;;;;;;;5010895;28;20539;-66
2022/12/06 09:17:35;;;;;;;8.30;6.70;;;;;;;;;;4993371;28;20476;-66
2022/12/06 09:20:01;;;;;;;7.67;5.73;;;;;;;;;;5009042;28;20428;-67
2022/12/06 09:22:27;;;;;;;5.50;5.10;;;;;;;;;;5010391;28;20482;-67
2022/12/06 09:24:53;;;;;;;15.10;6.20;;;;;;;;;;5010925;28;20412;-67
2022/12/06 09:27:19;;;;;;;7.20;6.60;;;;;;;;;;4993320;28;21003;-66
2022/12/06 09:29:45;;;;;;;8.90;5.73;;;;;;;;;;5010168;28;20519;-67
2022/12/06 09:32:11;;;;;;;6.37;5.30;;;;;;;;;;5010451;28;20586;-67
2022/12/06 09:34:37;;;;;;;6.20;5.70;;;;;;;;;;5008041;28;20432;-67
2022/12/06 09:37:09;;;;;;;7.93;5.50;;;;;;;;;;5010043;28;20487;-66
2022/12/06 09:39:51;;;;;;;9.47;6.30;;;;;;;;;;5010092;28;20792;-67
2022/12/06 09:42:36;;;;;;;6.30;5.70;;;;;;;;;;4993101;28;20432;-67
2022/12/06 09:45:24;;;;;;;7.20;6.53;;;;;;;;;;5010382;28;20443;-67
2022/12/06 09:47:53;;;;;;;6.20;5.50;;;;;;;;;;5010336;28;20452;-67
2022/12/06 09:50:35;;;;;;;8.07;7.10;;;;;;;;;;5010084;28;20408;-67
2022/12/06 09:53:19;;;;;;;6.80;6.20;;;;;;;;;;5009120;28;20462;-66
2022/12/06 09:55:53;;;;;;;8.20;7.03;;;;;;;;;;5009841;28;20436;-67
2022/12/06 09:58:40;;;;;;;10.70;6.50;;;;;;;;;;5009713;28;20944;-67
2022/12/06 10:01:09;;;;;;;7.10;5.27;;;;;;;;;;5009737;28;20913;-67
2022/12/06 10:03:53;;;;;;;6.73;6.13;;;;;;;;;;5009861;28;20770;-66
2022/12/06 10:06:21;;;;;;;5.20;4.70;;;;;;;;;;5006422;28;20427;-66
2022/12/06 10:09:09;;;;;;;5.97;5.47;;;;;;;;;;5008059;28;20440;-66
2022/12/06 10:11:47;;;;;;;7.00;6.30;;;;;;;;;;5007962;28;20427;-66
2022/12/06 10:14:13;;;;;;;10.97;8.03;;;;;;;;;;5009390;28;20440;-67
2022/12/06 10:16:48;;;;;;;24.43;9.00;;;;;;;;;;5008719;28;20479;-66
2022/12/06 10:19:20;;;;;;;17.17;11.43;;;;;;;;;;5008053;28;20428;-66
2022/12/06 10:21:48;;;;;;;8.07;7.33;;;;;;;;;;5008556;28;20439;-66
2022/12/06 10:24:32;;;;;;;11.63;7.83;;;;;;;;;;5009765;28;20440;-66
2022/12/06 10:27:09;;;;;;;6.77;5.30;;;;;;;;;;5008437;28;20777;-67
2022/12/06 10:29:53;;;;;;;8.23;7.17;;;;;;;;;;5009125;28;20428;-67
2022/12/06 10:32:44;;;;;;;7.27;6.57;;;;;;;;;;5009869;28;20478;-67
2022/12/06 10:35:18;;;;;;;10.00;7.57;;;;;;;;;;5008841;28;20556;-66
2022/12/06 10:37:50;;;;;;;19.40;6.90;;;;;;;;;;5009685;28;20475;-66
2022/12/06 10:40:21;;;;;;;6.63;6.00;;;;;;;;;;4991851;28;20671;-67
2022/12/06 10:42:50;;;;;;;12.73;5.80;;;;;;;;;;4992216;28;20511;-66
2022/12/06 10:48:08;;;;;;;6.10;5.17;;;;;;;;;;5009612;28;20427;-67
2022/12/06 10:50:36;;;;;;;5.70;5.20;;;;;;;;;;5009501;28;20423;-66
2022/12/06 10:53:05;;;;;;;19.63;6.17;;;;;;;;;;5009670;28;20956;-67
2022/12/06 10:55:31;;;;;;;21.17;5.17;;;;;;;;;;5008711;28;20539;-67
2022/12/06 10:58:10;;;;;;;7.93;5.03;;;;;;;;;;5005441;28;20574;-66
2022/12/06 11:00:54;;;;;;;19.53;17.73;;;;;;;;;;5007889;28;21208;-67
2022/12/06 11:03:30;;;;;;;13.77;5.23;;;;;;;;;;5008340;28;20436;-67
2022/12/06 11:06:02;;;;;;;6.63;4.47;;;;;;;;;;5008829;28;20501;-67
2022/12/06 11:08:31;;;;;;;5.33;5.03;;;;;;;;;;5008430;28;20448;-67
2022/12/06 11:10:58;;;;;;;5.33;4.83;;;;;;;;;;5008451;28;20443;-67
2022/12/06 11:13:46;;;;;;;5.67;5.00;;;;;;;;;;5008866;28;20811;-67
2022/12/06 11:16:21;;;;;;;6.27;5.57;;;;;;;;;;4994237;28;20464;-67
2022/12/06 11:18:48;;;;;;;8.33;6.23;;;;;;;;;;5008676;28;20439;-67
2022/12/06 11:21:17;;;;;;;6.83;6.17;;;;;;;;;;5008006;28;20450;-67
2022/12/06 11:24:02;;;;;;;5.70;5.40;;;;;;;;;;4990936;28;20437;-67
2022/12/06 11:26:54;;;;;;;8.07;5.80;;;;;;;;;;5008611;28;21027;-67
2022/12/06 11:29:21;;;;;;;7.17;5.33;;;;;;;;;;5007916;28;20420;-67
2022/12/06 11:31:52;;;;;;;15.33;9.97;;;;;;;;;;5012158;28;20428;-67
2022/12/06 11:34:22;;;;;;;8.33;7.43;;;;;;;;;;5012231;28;20506;-67
2022/12/06 11:36:52;;;;;;;8.87;7.97;;;;;;;;;;5011996;28;20483;-68
2022/12/06 11:39:18;;;;;;;16.93;8.57;;;;;;;;;;5011819;28;20997;-68
2022/12/06 11:41:46;;;;;;;7.73;7.07;;;;;;;;;;5011382;28;20428;-67
2022/12/06 11:44:17;;;;;;;5.93;5.57;;;;;;;;;;5011350;28;20987;-67
2022/12/06 11:46:43;;;;;;;3.57;3.40;;;;;;;;;;5011000;28;20792;-67
2022/12/06 11:49:24;;;;;;;7.87;7.17;;;;;;;;;;5011611;28;20439;-68
2022/12/06 11:51:54;;;;;;;9.30;6.77;;;;;;;;;;5011948;28;20932;-67
2022/12/06 11:54:25;;;;;;;16.40;6.50;;;;;;;;;;4994807;28;20455;-67
2022/12/06 11:56:52;;;;;;;12.80;7.77;;;;;;;;;;5011728;28;20467;-67
2022/12/06 11:59:25;;;;;;;7.93;6.57;;;;;;;;;;5009832;28;20490;-67
2022/12/06 12:01:56;;;;;;;7.97;7.27;;;;;;;;;;4994400;28;20425;-67
2022/12/06 12:04:27;;;;;;;8.73;7.93;;;;;;;;;;5011558;28;20432;-67
2022/12/06 12:07:13;;;;;;;10.27;8.37;;;;;;;;;;5010973;28;20420;-67
2022/12/06 12:10:02;;;;;;;21.73;12.17;;;;;;;;;;5011269;28;20477;-69
2022/12/06 12:15:32;;;;;;;8.80;8.00;;;;;;;;;;5011014;28;20445;-64
2022/12/06 12:17:59;;;;;;;8.77;7.07;;;;;;;;;;5011311;28;21003;-66
2022/12/06 12:20:30;;;;;;;9.77;6.67;;;;;;;;;;5011198;28;20424;-67
2022/12/06 12:23:03;;;;;;;9.17;8.27;;;;;;;;;;5011614;28;20463;-67
2022/12/06 12:25:32;;;;;;;8.33;7.57;;;;;;;;;;5010239;28;20464;-67
2022/12/06 12:27:59;;;;;;;6.87;6.23;;;;;;;;;;5011386;28;20523;-67
2022/12/06 12:30:26;;;;;;;10.50;7.30;;;;;;;;;;5010843;28;20436;-67
2022/12/06 12:33:04;;;;;;;8.43;7.53;;;;;;;;;;5010839;28;20881;-67
2022/12/06 12:35:31;;;;;;;8.67;7.87;;;;;;;;;;4993953;28;20525;-66
2022/12/06 12:38:00;;;;;;;8.80;7.93;;;;;;;;;;5011448;28;21038;-67
2022/12/06 12:40:28;;;;;;;9.33;8.50;;;;;;;;;;5009582;28;20436;-66
2022/12/06 12:43:08;;;;;;;6.90;6.37;;;;;;;;;;4993692;28;20464;-67
2022/12/06 12:45:34;;;;;;;6.37;5.97;;;;;;;;;;5007137;28;20490;-67
2022/12/06 12:48:04;;;;;;;5.00;4.70;;;;;;;;;;5009422;28;20428;-67
2022/12/06 12:50:31;;;;;;;6.60;6.03;;;;;;;;;;5004321;28;20436;-67
2022/12/06 12:52:59;;;;;;;15.20;11.50;;;;;;;;;;5010273;28;20510;-67
2022/12/06 12:55:26;;;;;;;24.00;9.97;;;;;;;;;;5008417;28;20428;-67
2022/12/06 12:57:53;;;;;;;7.50;6.80;;;;;;;;;;5011377;28;20997;-67
2022/12/06 13:00:19;;;;;;;10.70;7.83;;;;;;;;;;5008505;28;20463;-67
2022/12/06 13:02:49;;;;;;;10.30;7.63;;;;;;;;;;5010782;28;20444;-67
2022/12/06 13:05:21;;;;;;;10.83;8.83;;;;;;;;;;4993560;28;20515;-67
2022/12/06 13:07:48;;;;;;;8.90;6.27;;;;;;;;;;5011332;28;20482;-67
2022/12/06 13:10:23;;;;;;;8.13;5.80;;;;;;;;;;5010575;28;20463;-67
2022/12/06 13:12:50;;;;;;;6.93;6.20;;;;;;;;;;5011253;28;20427;-67
2022/12/06 13:15:16;;;;;;;8.27;7.47;;;;;;;;;;5010512;28;20448;-67
2022/12/06 13:17:45;;;;;;;8.67;6.77;;;;;;;;;;5010590;28;20532;-67
2022/12/06 13:20:18;;;;;;;14.80;7.90;;;;;;;;;;4992739;28;20412;-67
2022/12/06 13:22:46;;;;;;;7.90;6.60;;;;;;;;;;5010432;28;21336;-67
2022/12/06 13:25:12;;;;;;;13.53;6.63;;;;;;;;;;5008885;28;20482;-67
2022/12/06 13:27:43;;;;;;;7.77;6.90;;;;;;;;;;5009770;28;20436;-67
2022/12/06 13:30:15;;;;;;;10.07;7.57;;;;;;;;;;5008536;28;20420;-67
2022/12/06 13:33:02;;;;;;;8.43;7.33;;;;;;;;;;5008399;28;21109;-67
2022/12/06 13:35:30;;;;;;;8.23;6.80;;;;;;;;;;5009208;28;21004;-67
2022/12/06 13:37:57;;;;;;;16.40;8.97;;;;;;;;;;5009320;28;20498;-67
2022/12/06 13:40:32;;;;;;;7.70;6.97;;;;;;;;;;5007942;28;20506;-67
2022/12/06 13:43:19;;;;;;;11.80;7.50;;;;;;;;;;5009907;28;21019;-67
2022/12/06 13:45:47;;;;;;;8.07;6.00;;;;;;;;;;4970257;28;20932;-67
2022/12/06 13:48:25;;;;;;;6.00;5.40;;;;;;;;;;5009335;28;20447;-67
2022/12/06 13:50:52;;;;;;;6.10;5.60;;;;;;;;;;5009015;28;20424;-67
2022/12/06 13:53:19;;;;;;;7.20;6.50;;;;;;;;;;5010404;28;20797;-67
2022/12/06 13:55:49;;;;;;;6.43;5.80;;;;;;;;;;5009740;28;20428;-67
2022/12/06 13:58:15;;;;;;;12.93;6.60;;;;;;;;;;5009989;28;20488;-67
2022/12/06 14:00:41;;;;;;;10.83;7.70;;;;;;;;;;5009440;28;20444;-67
2022/12/06 14:03:13;;;;;;;7.90;7.10;;;;;;;;;;5009886;28;21088;-67
2022/12/06 14:05:56;;;;;;;9.07;7.70;;;;;;;;;;5009987;28;20432;-67
2022/12/06 14:08:23;;;;;;;29.40;14.97;;;;;;;;;;4992711;28;20459;-67
2022/12/06 14:10:49;;;;;;;16.50;11.70;;;;;;;;;;5009491;28;20436;-67
2022/12/06 14:13:16;;;;;;;9.40;7.93;;;;;;;;;;5009949;28;20422;-67
2022/12/06 14:15:45;;;;;;;6.07;5.57;;;;;;;;;;5009821;28;20458;-67
2022/12/06 14:18:25;;;;;;;6.27;5.70;;;;;;;;;;5009457;28;20476;-67
2022/12/06 14:20:52;;;;;;;4.93;4.47;;;;;;;;;;4992002;28;20413;-67
2022/12/06 14:23:22;;;;;;;10.30;6.33;;;;;;;;;;5009685;28;20933;-67
2022/12/06 14:25:48;;;;;;;5.87;5.33;;;;;;;;;;5009164;28;20840;-67
2022/12/06 14:28:14;;;;;;;6.23;5.73;;;;;;;;;;5010030;28;20455;-67
2022/12/06 14:30:40;;;;;;;6.87;5.50;;;;;;;;;;5008863;28;20432;-67
2022/12/06 14:33:22;;;;;;;8.47;6.70;;;;;;;;;;5009506;28;20782;-67
2022/12/06 14:35:49;;;;;;;13.20;6.53;;;;;;;;;;5009856;28;20452;-67
2022/12/06 14:38:23;;;;;;;8.87;7.50;;;;;;;;;;5009603;28;20475;-67
2022/12/06 14:43:34;;;;;;;12.30;8.13;;;;;;;;;;5010048;28;20520;-66
2022/12/06 14:46:02;;;;;;;13.70;8.17;;;;;;;;;;5006390;28;20427;-67
2022/12/06 14:50:22;;;;;;;16.47;10.60;;;;;;;;;;5009536;28;20444;-67
2022/12/06 14:51:20;;;;;;;14.60;8.10;;;;;;;;;;5008406;28;20427;-67
2022/12/06 14:53:46;;;;;;;15.23;7.20;;;;;;;;;;5009770;28;20532;-67
2022/12/06 14:56:18;;;;;;;7.30;6.43;;;;;;;;;;5009114;28;20436;-67
2022/12/06 14:58:45;;;;;;;7.50;6.80;;;;;;;;;;5009598;28;20799;-67
2022/12/06 15:01:14;;;;;;;8.27;7.17;;;;;;;;;;5008984;28;20868;-67
2022/12/06 15:03:40;;;;;;;10.90;8.37;;;;;;;;;;5012978;28;20432;-67
2022/12/06 15:06:15;;;;;;;10.03;7.87;;;;;;;;;;5012594;28;20976;-67
2022/12/06 15:08:51;;;;;;;10.80;8.77;;;;;;;;;;5013000;28;21023;-67
2022/12/06 15:12:53;;;;;;;11.70;10.30;;;;;;;;;;5012717;28;20435;-67
2022/12/06 15:14:17;;;;;;;12.50;8.53;;;;;;;;;;5013262;28;20419;-67
2022/12/06 15:16:44;;;;;;;28.43;11.17;;;;;;;;;;5012946;28;20582;-67
2022/12/06 15:19:12;;;;;;;20.30;12.13;;;;;;;;;;5012593;28;20416;-67
2022/12/06 15:21:38;;;;;;;14.27;10.60;;;;;;;;;;5012895;28;20426;-67
2022/12/06 15:24:04;;;;;;;12.20;10.53;;;;;;;;;;5013141;28;20519;-67
2022/12/06 15:26:30;;;;;;;10.30;9.07;;;;;;;;;;5013007;28;20446;-67
2022/12/06 15:28:56;;;;;;;11.60;8.40;;;;;;;;;;5013098;28;20419;-67
2022/12/06 15:31:25;;;;;;;13.60;7.77;;;;;;;;;;5012003;28;20781;-67